Columbia, Missouri
Current Conditions -  °F | °C
As of 6:54 PM on Friday 31 Oct 2014 (Local Time) from KCOU Reporting Station
Clear Clear  
Wind Chill: -1°   Ceiling: Unl
Heat Index:   Visibility: 10mi
Dew Point: -7°   Wind: 10mph
Humidity: 48%   Direction: 360°N
Pressure: 30.4"   Gusts: NA
Location:  38.95°N, 92.33°W
Report Text: KCOU 312354Z 36009KT 10SM CLR 03/M07 A3040 RMK AO2 SLP297 T00331067 10089 20033 51014
Loading
Personal Weather Stations






























Interactive Weather Map
Tropical Storm Tracking
New forecast layout! Learn more

10-Day Weather Forecast

Advertisements
Track Severe Weather on mobile